Oxnard, CA (93031)

7:07 AM PST on February 12, 2016 (GMT -0800)
MesoWest | | Change Station
CLOSE
Current Station
Personal Weather Station
Location: Oxnard, CA
Elevation: 77 ft
Nearby Weather Stations
Active Advisory: High Surf Advisory

Elev 77 ft 34.22 °N, 119.18 °W | Updated 1 hour ago

Clear
Clear
54.0 °F
Feels Like 54.0 °F
N
0.0
Wind Variable Wind from North
Gusts 0.0 mph

Today
High -- | Low -- °F
--% Chance of Precip.
Yesterday
High -- | Low -- °F
Precip. -- in
Pressure 30.10 in
Visibility 10.0 miles
Clouds Clear
Dew Point Not available.
Humidity Not available.
Rainfall in
Snow Depth Not available.
6:45 AM 5:37 PM
Waxing Crescent, 21% visible
METAR KOXR 121451Z 29004KT 10SM CLR 13/03 A3010 RMK AO2 SLP192 T01330028 53007
Pressure 30.10 in
Visibility 10.0 miles
Clouds Clear
Dew Point Not available.
Humidity Not available.
Rainfall in
Snow Depth Not available.
6:45 AM 5:37 PM
Waxing Crescent, 21% visible
METAR KOXR 121451Z 29004KT 10SM CLR 13/03 A3010 RMK AO2 SLP192 T01330028 53007

10-Day Weather Forecast

Almanac

Astronomy

Feb. 12, 2016 Rise Set
Actual Time
Civil Twilight
Nautical Twilight
Astronomical Twilight
Moon
Length of Visible Light
Length of Day
Tomorrow will be .
, % of the Moon is Illuminated

Today's Extremes

State Highs State Lows

Community

WunderPhotos

Upload Photos

1,892,323 photos uploaded!

WunderBlog® & News

Nearby

Air Quality

  Air Quality AQ Index Pollutant
Not available.

Snow Depth

Station Depth Elevation

Earthquake Activity

City Distance Mag. Time & Date
Minimum magnitude displayed is 2.5.

Coastal Water Temperatures

Place Temperature

Stations

Nearby Weather Stations

Station Location Temp. Windchill Dew Point Humidity Wind Precip. Elev Updated Type
                   

Watches & Warnings

High Surf Advisory
Issued: 3:01 AM PST Feb. 12, 2016 – National Weather Service

... High surf advisory remains in effect from 9 am this morning to
noon PST Sunday...

* surf and timing... surf will build to 4 to 8 feet today... then
peak at 5 to 10 feet tonight through Saturday night. Surf will
begin to subside slowly Sunday.

* Impacts... the large surf may cause minor beach erosion and
strong rip currents that will create a risk of ocean drowning.
Sneaker waves can suddenly overrun previously dry beaches and
jetties around the time of high tide.

* Locations... surf will be highest on exposed west and northwest
facing beaches. Local sets to 12 feet are possible near
Ventura Harbor.

Precautionary/preparedness actions...

A high surf advisory means that high surf and rip currents will
make swimming and rock jetties dangerous.

Remember... if caught in a rip current... swim parallel to shore
until you are free of the powerful current. Always swim near a
lifeguard.